Portada
METAR-TAF:

METAR-TAF

Aeroports :

Conakry, Guinea

latitud: 09-34N, longitud: 013-37W, altitud: 26 m

Observació

L'informe es va fer fa 1 hora i 26 minuts, a les 23:00 UTC
Vent calma
Temperatura 27°C
Humitat 89%
Pressió 1013 hPa
Visibilitat 10 km o més
Núvols disperses a una alçada de 1300 ft
Núvols disperses a una alçada de 11000 ft

METAR: GUCY 052300Z 00000KT 9999 SCT013 SCT110 27/25 Q1013 NOSIG

Hora: 00:26 (00:26 UTC)

Pronòstic

L'informe es va fer fa 1 hora i 26 minuts, a les 23:00 UTC
Pronòstic vàlid del 06 a les 00 UTC al 07 a les 06 UTC
Vent 3 kt del Oest
Visibilitat 10 km o més
Escasses núvols a una alçada de 1300 ft

TAF: GUCY 052300Z 0600/0706 27006KMH 9999 FEW013 SCT110TX28/Z TN25/Z Q1013

Observacions i pronòstics meteorològics de més de 4000 aeroports (METAR i TAF).

Les estacions disponibles són els punts grocs i vermells al mapa.

Posi el ratolí al punt desitjat per veure el nom de l'estació.

Feu clic per veure les observacions i els pronòstics meteorològics.

Per canviar el mapa: feu clic els botons verds amb una creu de color negre per apropar; al botó verd amb un guió per allunyar la imatge; o en les fletxes verdes per a mapes adjacents.


METAR-TAF: